CW4848 Ferrals les Corbiares FR current weather conditions

sailwx.info

Wind from 207 at 0 knots gusting 4

Air temperature 22.2° C
Dewpoint 20.5° C

Last reported at 2020-Aug-10 02:28 UTC.
Time now 2020-Aug-10 05:07 UTC

Location: N 43°09' E 002°44'.
View on Google Maps.

See reports from other nearby stations

  
Tides and Currents Weather Stations Pressure Air Temp Water Temp Dewpoint Dewpoint Depression Visibility Wind Speed Wind Dir Waves Ship Positions
date/time (UTC)wind fromknots sea level pressurealtimeterstation pressurevisibilityair tempwater tempwave heightnotes
2020-Aug-10 02:28 207 0 gusting 4 22.2
2020-Aug-10 00:28 090 0 gusting 1 22.8
2020-Aug-09 23:58 061 2 gusting 4 22.8
2020-Aug-09 23:28 070 2 gusting 5 22.8
2020-Aug-09 22:58 052 1 gusting 4 22.8
2020-Aug-09 22:28 061 0 gusting 3 22.8
2020-Aug-09 21:58 049 3 gusting 5 23.3
2020-Aug-09 21:28 098 23.3
2020-Aug-09 20:58 098 1 gusting 3 23.3
2020-Aug-09 20:28 052 23.9
2020-Aug-09 19:58 123 1 gusting 6 24.4
2020-Aug-09 19:28 071 5 gusting 13 25.0
2020-Aug-09 18:58 053 5 gusting 9 25.6
2020-Aug-09 18:28 051 3 gusting 6 27.2
2020-Aug-09 17:58 024 0 gusting 4 27.8
2020-Aug-09 17:28 024 1 gusting 4 27.8
2020-Aug-09 15:58 067 5 gusting 8 29.4
2020-Aug-09 15:28 036 5 gusting 9 30.0
2020-Aug-09 14:58 076 5 gusting 9 29.4
2020-Aug-09 13:58 091 6 gusting 11 31.1
2020-Aug-09 13:28 138 7 gusting 9 32.2
2020-Aug-09 12:28 086 6 gusting 13 32.2
2020-Aug-09 11:58 057 6 gusting 13 32.8
2020-Aug-09 11:28 094 7 gusting 14 32.8
2020-Aug-09 10:58 063 2 gusting 8 32.8
2020-Aug-09 10:28 050 5 gusting 7 30.6
2020-Aug-09 09:58 017 2 gusting 6 29.4
2020-Aug-09 09:28 038 3 gusting 6 28.9
2020-Aug-09 06:28 053 1 gusting 5 24.4
2020-Aug-09 05:58 058 1 gusting 4 23.9
2020-Aug-09 04:28 090 23.3
2020-Aug-09 03:58 158 0 gusting 3 23.9
2020-Aug-09 03:28 322 2 gusting 4 23.3
2020-Aug-09 01:58 059 1 gusting 2 22.8
2020-Aug-09 01:28 060 22.8
2020-Aug-09 00:58 360 2 gusting 4 22.8
2020-Aug-08 23:58 035 23.9
2020-Aug-08 23:28 036 0 gusting 2 24.4
2020-Aug-08 22:58 036 1 gusting 2 24.4
2020-Aug-08 22:28 036 0 gusting 2 25.0
2020-Aug-08 21:58 036 0 gusting 2 25.0
2020-Aug-08 20:58 036 26.1
2020-Aug-08 20:28 036 26.7
2020-Aug-08 19:58 035 26.7
2020-Aug-08 19:28 036 1 gusting 4 27.2
2020-Aug-08 18:28 058 5 gusting 8 29.4
2020-Aug-08 17:58 032 5 gusting 8 32.8
2020-Aug-08 17:28 061 2 gusting 8 33.9
2020-Aug-08 16:58 067 5 gusting 6 35.6
2020-Aug-08 16:28 061 1 gusting 6 36.1
2020-Aug-08 14:28 018 1 gusting 4 37.8
2020-Aug-08 12:58 331 2 gusting 8 36.1
2020-Aug-08 12:28 360 3 gusting 7 35.6
2020-Aug-08 11:58 360 4 gusting 7 35.0
2020-Aug-08 11:28 337 4 gusting 9 33.9
2020-Aug-08 10:58 317 4 gusting 9 32.8
2020-Aug-08 10:28 360 6 gusting 11 32.2
2020-Aug-08 09:28 322 3 gusting 13 30.0
2020-Aug-08 08:58 317 5 gusting 10 29.4
2020-Aug-08 08:28 309 5 gusting 9 28.3
2020-Aug-08 07:58 245 3 gusting 6 26.7
2020-Aug-08 07:28 190 2 gusting 4 25.0
2020-Aug-08 06:58 144 23.9
2020-Aug-08 06:28 128 0 gusting 1 23.3
2020-Aug-08 05:58 147 1 gusting 3 22.8
2020-Aug-08 05:28 144 22.2